createdAt,value
2018-03-08T00:02:18.049Z,94.10
2018-03-08T00:06:22.766Z,94.20
2018-03-08T00:10:26.297Z,94.20
2018-03-08T00:14:35.108Z,94.20
2018-03-08T00:18:38.915Z,94.20
2018-03-08T00:22:44.810Z,94.20
2018-03-08T00:27:14.066Z,94.20
2018-03-08T00:35:29.204Z,94.30
2018-03-08T00:39:37.999Z,94.20
2018-03-08T00:43:44.683Z,94.30
2018-03-08T00:47:48.318Z,94.30
2018-03-08T00:51:53.433Z,94.30
2018-03-08T00:55:57.067Z,94.40
2018-03-08T01:00:00.522Z,94.40
2018-03-08T01:04:04.581Z,94.30
2018-03-08T01:08:11.069Z,94.40
2018-03-08T01:12:15.771Z,94.30
2018-03-08T01:20:33.601Z,94.40
2018-03-08T01:24:40.205Z,94.40
2018-03-08T01:28:44.545Z,94.40
2018-03-08T01:32:48.117Z,94.40
2018-03-08T01:41:08.562Z,94.40
2018-03-08T01:45:20.402Z,94.50
2018-03-08T01:49:27.312Z,94.50
2018-03-08T01:57:48.434Z,94.40
2018-03-08T02:01:56.150Z,94.40
2018-03-08T02:06:05.083Z,94.40
2018-03-08T02:10:10.521Z,94.40
2018-03-08T02:14:16.333Z,94.40
2018-03-08T02:18:21.371Z,94.50
2018-03-08T02:22:29.673Z,94.50
2018-03-08T02:26:33.307Z,94.50
2018-03-08T02:30:36.765Z,94.50
2018-03-08T02:34:41.135Z,94.50
2018-03-08T02:38:46.348Z,94.50
2018-03-08T02:42:51.787Z,94.50
2018-03-08T02:47:03.900Z,94.50
2018-03-08T02:51:10.335Z,94.50
2018-03-08T02:55:17.608Z,94.50
2018-03-08T02:59:26.293Z,94.50
2018-03-08T03:03:37.746Z,94.50
2018-03-08T03:07:43.904Z,94.50
2018-03-08T03:11:49.287Z,94.50
2018-03-08T03:15:58.727Z,94.50
2018-03-08T03:20:03.635Z,94.50
2018-03-08T03:24:07.820Z,94.50
2018-03-08T03:28:13.162Z,94.60
2018-03-08T03:32:18.176Z,94.60
2018-03-08T03:36:27.931Z,94.60
2018-03-08T03:40:42.918Z,94.60
2018-03-08T03:44:48.865Z,94.60
2018-03-08T03:48:57.012Z,94.60
2018-03-08T03:53:03.907Z,94.70
2018-03-08T03:57:07.446Z,94.70
2018-03-08T04:01:11.510Z,94.80
2018-03-08T04:05:15.762Z,94.80
2018-03-08T04:17:52.554Z,94.80
2018-03-08T04:22:00.325Z,94.80
2018-03-08T04:26:07.574Z,94.80
2018-03-08T04:30:11.177Z,94.80
2018-03-08T04:34:15.661Z,94.80
2018-03-08T04:42:57.199Z,94.90
2018-03-08T04:47:00.515Z,94.90
2018-03-08T04:51:03.834Z,94.90
2018-03-08T04:55:07.149Z,94.90
2018-03-08T04:59:11.222Z,94.90
2018-03-08T05:03:14.559Z,94.90
2018-03-08T05:07:17.875Z,94.90
2018-03-08T05:11:21.947Z,94.90
2018-03-08T05:15:25.272Z,94.90
2018-03-08T05:19:28.595Z,94.90
2018-03-08T05:23:31.930Z,94.90
2018-03-08T05:27:35.230Z,95.00
2018-03-08T05:31:38.550Z,95.00
2018-03-08T05:35:41.858Z,95.00
2018-03-08T05:39:45.159Z,95.10
2018-03-08T05:43:48.478Z,95.20
2018-03-08T05:47:51.791Z,95.20
2018-03-08T05:51:55.129Z,95.20
2018-03-08T05:55:59.201Z,95.30
2018-03-08T06:00:02.581Z,95.30
2018-03-08T06:04:05.900Z,95.30
2018-03-08T06:08:09.202Z,95.30
2018-03-08T06:12:12.538Z,95.40
2018-03-08T06:16:15.838Z,95.40
2018-03-08T06:20:19.172Z,95.40
2018-03-08T06:24:23.239Z,95.40
2018-03-08T06:28:26.567Z,95.40
2018-03-08T06:32:29.893Z,95.40
2018-03-08T06:36:33.974Z,95.50
2018-03-08T06:40:37.298Z,95.50
2018-03-08T06:44:40.598Z,95.50
2018-03-08T06:48:43.921Z,95.50
2018-03-08T06:52:47.996Z,95.50
2018-03-08T06:56:51.310Z,95.50
2018-03-08T07:00:54.627Z,95.50
2018-03-08T07:04:57.950Z,95.50
2018-03-08T07:09:02.046Z,95.60
2018-03-08T07:13:05.354Z,95.60
2018-03-08T07:17:08.678Z,95.50
2018-03-08T07:21:12.741Z,95.60
2018-03-08T07:25:16.076Z,95.60
2018-03-08T07:29:19.379Z,95.60
2018-03-08T07:33:22.704Z,95.60
2018-03-08T07:37:26.782Z,95.60
2018-03-08T07:41:30.107Z,95.60
2018-03-08T07:45:33.411Z,95.60
2018-03-08T07:49:36.726Z,95.60
2018-03-08T07:53:40.055Z,95.60
2018-03-08T07:57:43.363Z,95.60
2018-03-08T08:01:46.678Z,95.60
2018-03-08T08:06:07.451Z,95.50
2018-03-08T08:10:11.543Z,95.50
2018-03-08T08:14:14.870Z,95.50
2018-03-08T08:18:18.960Z,95.50
2018-03-08T08:22:22.277Z,95.50
2018-03-08T08:26:25.603Z,95.50
2018-03-08T08:30:29.672Z,95.50
2018-03-08T08:34:32.988Z,95.50
2018-03-08T08:38:36.310Z,95.50
2018-03-08T08:42:39.616Z,95.50
2018-03-08T08:46:42.996Z,95.50
2018-03-08T08:50:47.035Z,95.60
2018-03-08T08:54:51.555Z,95.60
2018-03-08T08:58:55.012Z,95.60
2018-03-08T09:02:58.346Z,95.60
2018-03-08T09:07:01.642Z,95.70
2018-03-08T09:11:04.964Z,95.70
2018-03-08T09:15:08.262Z,95.70
2018-03-08T09:19:11.587Z,95.70
2018-03-08T09:23:14.904Z,95.70
2018-03-08T09:27:18.976Z,95.90
2018-03-08T09:31:22.298Z,95.80
2018-03-08T09:35:27.763Z,95.90
2018-03-08T09:39:31.075Z,95.80
2018-03-08T09:43:34.407Z,95.80
2018-03-08T09:47:37.710Z,95.80
2018-03-08T09:51:41.035Z,95.90
2018-03-08T09:55:44.339Z,95.90
2018-03-08T09:59:47.656Z,95.80
2018-03-08T10:03:50.969Z,95.90
2018-03-08T10:07:54.283Z,96.00
2018-03-08T10:11:57.579Z,96.10
2018-03-08T10:16:00.911Z,96.20
2018-03-08T10:20:04.978Z,96.40
2018-03-08T10:24:08.295Z,96.40
2018-03-08T10:28:11.618Z,96.30
2018-03-08T10:32:15.019Z,96.20
2018-03-08T10:36:18.352Z,96.30
2018-03-08T10:44:25.742Z,96.00
2018-03-08T10:48:29.050Z,95.80
2018-03-08T10:52:32.358Z,96.00
2018-03-08T10:56:35.666Z,95.50
2018-03-08T11:00:44.368Z,95.30
2018-03-08T11:04:53.123Z,95.20
2018-03-08T11:08:56.430Z,95.20
2018-03-08T11:13:00.507Z,95.20
2018-03-08T11:17:03.834Z,95.20
2018-03-08T11:21:07.129Z,95.30
2018-03-08T11:25:10.442Z,95.40
2018-03-08T11:29:13.755Z,95.20
2018-03-08T11:33:17.078Z,95.30
2018-03-08T11:37:21.139Z,95.20
2018-03-08T11:41:24.447Z,95.10
2018-03-08T11:45:27.758Z,94.90
2018-03-08T11:49:31.051Z,94.70
2018-03-08T11:53:34.358Z,94.50
2018-03-08T11:57:37.670Z,94.50
2018-03-08T12:01:40.978Z,94.60
2018-03-08T12:05:44.294Z,94.50
2018-03-08T12:09:47.619Z,94.50
2018-03-08T12:13:51.676Z,94.50
2018-03-08T12:17:55.044Z,94.50
2018-03-08T12:21:58.307Z,94.30
2018-03-08T12:26:01.624Z,94.50
2018-03-08T12:30:04.933Z,93.90
2018-03-08T12:34:08.251Z,93.70
2018-03-08T12:38:12.334Z,93.60
2018-03-08T12:42:15.642Z,93.60
2018-03-08T12:46:18.971Z,93.60
2018-03-08T12:50:23.026Z,93.60
2018-03-08T12:54:26.335Z,93.60
2018-03-08T12:58:29.647Z,93.60
2018-03-08T13:02:32.956Z,93.50
2018-03-08T13:06:36.271Z,92.70
2018-03-08T13:10:39.588Z,92.30
2018-03-08T13:14:42.909Z,92.00
2018-03-08T13:18:46.987Z,91.70
2018-03-08T13:22:50.295Z,91.70
2018-03-08T13:26:53.618Z,91.50
2018-03-08T13:30:56.910Z,91.50
2018-03-08T13:35:00.219Z,91.40
2018-03-08T13:39:03.531Z,91.00
2018-03-08T13:43:06.846Z,91.00
2018-03-08T13:47:10.926Z,91.00
2018-03-08T13:51:14.225Z,91.00
2018-03-08T13:55:17.529Z,91.00
2018-03-08T13:59:20.838Z,91.10
2018-03-08T14:03:24.156Z,91.10
2018-03-08T14:07:27.485Z,91.10
2018-03-08T14:11:31.546Z,91.00
2018-03-08T14:15:34.865Z,91.00
2018-03-08T14:19:38.179Z,90.80
2018-03-08T14:23:41.474Z,90.90
2018-03-08T14:27:44.799Z,90.90
2018-03-08T14:31:48.119Z,90.90
2018-03-08T14:35:51.410Z,90.90
2018-03-08T14:39:55.483Z,90.50
2018-03-08T14:43:58.794Z,90.50
2018-03-08T14:48:02.107Z,90.50
2018-03-08T14:52:05.404Z,90.40
2018-03-08T14:56:08.714Z,90.50
2018-03-08T15:00:12.081Z,90.40
2018-03-08T15:04:15.330Z,90.60
2018-03-08T15:08:18.647Z,90.70
2018-03-08T15:12:22.722Z,90.70
2018-03-08T15:16:26.019Z,90.70
2018-03-08T15:20:29.327Z,90.80
2018-03-08T15:24:32.639Z,90.80
2018-03-08T15:28:35.946Z,90.80
2018-03-08T15:32:39.239Z,90.80
2018-03-08T15:36:42.551Z,90.80
2018-03-08T15:40:45.864Z,90.80
2018-03-08T15:44:49.195Z,90.70
2018-03-08T15:48:53.246Z,90.90
2018-03-08T15:52:56.898Z,90.90
2018-03-08T15:57:00.193Z,90.90
2018-03-08T16:01:03.520Z,90.90
2018-03-08T16:05:06.831Z,90.90
2018-03-08T16:09:10.923Z,91.30
2018-03-08T16:13:14.243Z,91.30
2018-03-08T16:17:17.560Z,91.60
2018-03-08T16:21:21.642Z,92.10
2018-03-08T16:25:24.995Z,92.10
2018-03-08T16:29:28.330Z,92.40
2018-03-08T16:33:31.653Z,92.80
2018-03-08T16:37:34.979Z,93.20
2018-03-08T16:41:38.280Z,93.30
2018-03-08T16:45:41.594Z,93.50
2018-03-08T16:49:45.667Z,94.20
2018-03-08T16:53:48.958Z,94.20
2018-03-08T16:57:52.286Z,94.60
2018-03-08T17:01:55.583Z,94.80
2018-03-08T17:05:58.907Z,95.00
2018-03-08T17:10:02.203Z,95.20
2018-03-08T17:14:05.524Z,95.10
2018-03-08T17:18:08.838Z,95.00
2018-03-08T17:22:12.156Z,95.00
2018-03-08T17:26:15.463Z,94.90
2018-03-08T17:30:18.796Z,94.90
2018-03-08T17:34:22.152Z,95.00
2018-03-08T17:38:25.423Z,95.00
2018-03-08T17:42:28.761Z,95.40
2018-03-08T17:46:32.843Z,95.60
2018-03-08T17:50:36.154Z,95.60
2018-03-08T17:54:39.462Z,95.60
2018-03-08T17:58:42.783Z,95.60
2018-03-08T18:02:46.871Z,95.70
2018-03-08T18:06:50.171Z,95.70
2018-03-08T18:10:53.498Z,95.70
2018-03-08T18:14:56.826Z,95.90
2018-03-08T18:19:00.136Z,95.90
2018-03-08T18:23:03.461Z,95.80
2018-03-08T18:27:06.798Z,95.50
2018-03-08T18:59:49.202Z,93.80
2018-03-08T19:03:52.515Z,93.50
2018-03-08T19:07:56.590Z,93.80
2018-03-08T19:11:59.895Z,93.80
2018-03-08T19:16:03.216Z,94.00
2018-03-08T19:20:06.515Z,94.20
2018-03-08T19:24:09.871Z,94.30
2018-03-08T19:28:13.212Z,94.20
2018-03-08T19:32:16.530Z,94.40
2018-03-08T19:36:19.847Z,94.50
2018-03-08T19:40:23.951Z,94.60
2018-03-08T19:44:27.283Z,94.60
2018-03-08T19:48:30.629Z,94.70
2018-03-08T19:52:33.942Z,94.80
2018-03-08T19:56:37.271Z,94.90
2018-03-08T20:00:40.619Z,94.90
2018-03-08T20:04:43.926Z,94.80
2018-03-08T20:08:47.255Z,94.90
2018-03-08T20:12:50.597Z,94.90
2018-03-08T20:16:54.692Z,95.00
2018-03-08T20:20:58.039Z,94.90
2018-03-08T20:25:01.364Z,94.90
2018-03-08T20:29:04.704Z,94.80
2018-03-08T20:33:08.017Z,94.80
2018-03-08T20:37:11.348Z,94.80
2018-03-08T20:41:14.659Z,94.90
2018-03-08T20:45:18.011Z,95.00
2018-03-08T20:49:21.323Z,95.10
2018-03-08T20:53:24.638Z,95.10
2018-03-08T20:57:27.948Z,95.00
2018-03-08T21:01:31.281Z,95.00
2018-03-08T21:05:34.583Z,95.10
2018-03-08T21:09:37.927Z,95.10
2018-03-08T21:13:41.259Z,95.10
2018-03-08T21:17:44.595Z,95.20
2018-03-08T21:21:47.928Z,95.20
2018-03-08T21:25:51.259Z,95.30
2018-03-08T21:29:54.554Z,95.30
2018-03-08T21:33:57.880Z,95.30
2018-03-08T21:38:01.212Z,95.30
2018-03-08T21:42:04.511Z,95.30
2018-03-08T21:46:07.839Z,95.30
2018-03-08T21:50:11.160Z,95.30
2018-03-08T21:54:14.500Z,95.30
2018-03-08T21:58:17.807Z,95.30
2018-03-08T22:02:21.138Z,95.30
2018-03-08T22:06:25.267Z,95.30
2018-03-08T22:10:28.581Z,95.30
2018-03-08T22:14:31.912Z,95.30
2018-03-08T22:18:35.237Z,95.30
2018-03-08T22:22:38.563Z,95.30
2018-03-08T22:26:41.876Z,95.30
2018-03-08T22:30:45.201Z,95.30
2018-03-08T22:34:48.520Z,95.30
2018-03-08T22:38:51.852Z,95.30
2018-03-08T22:42:55.180Z,95.40
2018-03-08T22:46:58.527Z,95.40
2018-03-08T22:51:01.842Z,95.40
2018-03-08T22:55:05.162Z,95.40
2018-03-08T22:59:08.515Z,95.40
2018-03-08T23:03:17.672Z,95.30
2018-03-08T23:07:21.092Z,95.30
2018-03-08T23:11:24.798Z,95.10
2018-03-08T23:19:48.746Z,94.70
2018-03-08T23:37:56.519Z,94.20
2018-03-08T23:41:59.967Z,94.40
2018-03-08T23:46:03.663Z,94.60
2018-03-08T23:50:07.064Z,94.70
2018-03-08T23:54:10.410Z,94.90
2018-03-08T23:58:13.793Z,95.00
